sensor_id;sensor_type;location;lat;lon;timestamp;pressure;altitude;pressure_sealevel;temperature;humidity
16690;BME280;8458;52.220;9.884;2023-02-11T00:00:06;102340.50;;;5.25;94.15
16690;BME280;8458;52.220;9.884;2023-02-11T00:02:33;102334.78;;;5.27;94.07
16690;BME280;8458;52.220;9.884;2023-02-11T00:05:00;102342.56;;;5.23;94.44
16690;BME280;8458;52.220;9.884;2023-02-11T00:07:29;102340.50;;;5.25;94.41
16690;BME280;8458;52.220;9.884;2023-02-11T00:09:55;102343.25;;;5.25;94.81
16690;BME280;8458;52.220;9.884;2023-02-11T00:12:22;102334.56;;;5.28;94.75
16690;BME280;8458;52.220;9.884;2023-02-11T00:14:48;102335.06;;;5.32;94.87
16690;BME280;8458;52.220;9.884;2023-02-11T00:17:15;102321.50;;;5.30;94.96
16690;BME280;8458;52.220;9.884;2023-02-11T00:19:42;102300.16;;;5.32;94.86
16690;BME280;8458;52.220;9.884;2023-02-11T00:22:08;102299.97;;;5.34;95.00
16690;BME280;8458;52.220;9.884;2023-02-11T00:24:36;102308.59;;;5.31;95.25
16690;BME280;8458;52.220;9.884;2023-02-11T00:27:03;102316.47;;;5.34;95.28
16690;BME280;8458;52.220;9.884;2023-02-11T00:29:29;102332.50;;;5.30;95.77
16690;BME280;8458;52.220;9.884;2023-02-11T00:31:55;102343.13;;;5.33;95.60
16690;BME280;8458;52.220;9.884;2023-02-11T00:34:22;102340.66;;;5.38;95.63
16690;BME280;8458;52.220;9.884;2023-02-11T00:36:48;102334.69;;;5.35;95.70
16690;BME280;8458;52.220;9.884;2023-02-11T00:39:16;102334.97;;;5.40;95.31
16690;BME280;8458;52.220;9.884;2023-02-11T00:41:43;102341.50;;;5.39;95.28
16690;BME280;8458;52.220;9.884;2023-02-11T00:44:10;102336.00;;;5.39;95.66
16690;BME280;8458;52.220;9.884;2023-02-11T00:46:36;102326.97;;;5.45;95.68
16690;BME280;8458;52.220;9.884;2023-02-11T00:49:03;102323.31;;;5.38;96.27
16690;BME280;8458;52.220;9.884;2023-02-11T00:51:29;102338.47;;;5.34;96.80
16690;BME280;8458;52.220;9.884;2023-02-11T00:53:56;102335.16;;;5.38;96.81
16690;BME280;8458;52.220;9.884;2023-02-11T00:56:23;102335.34;;;5.37;96.73
16690;BME280;8458;52.220;9.884;2023-02-11T00:58:51;102337.72;;;5.40;97.05
16690;BME280;8458;52.220;9.884;2023-02-11T01:01:18;102350.06;;;5.44;96.86
16690;BME280;8458;52.220;9.884;2023-02-11T01:03:45;102342.84;;;5.43;97.14
16690;BME280;8458;52.220;9.884;2023-02-11T01:06:11;102341.50;;;5.39;97.70
16690;BME280;8458;52.220;9.884;2023-02-11T01:08:38;102343.22;;;5.40;98.21
16690;BME280;8458;52.220;9.884;2023-02-11T01:11:06;102348.16;;;5.45;98.14
16690;BME280;8458;52.220;9.884;2023-02-11T01:13:34;102349.75;;;5.39;98.74
16690;BME280;8458;52.220;9.884;2023-02-11T01:16:04;102351.28;;;5.42;99.15
16690;BME280;8458;52.220;9.884;2023-02-11T01:18:31;102339.44;;;5.41;99.59
16690;BME280;8458;52.220;9.884;2023-02-11T01:20:57;102333.16;;;5.47;99.76
16690;BME280;8458;52.220;9.884;2023-02-11T01:23:24;102341.25;;;5.49;99.80
16690;BME280;8458;52.220;9.884;2023-02-11T01:25:50;102326.34;;;5.43;100.00
16690;BME280;8458;52.220;9.884;2023-02-11T01:28:20;102324.63;;;5.42;100.00
16690;BME280;8458;52.220;9.884;2023-02-11T01:30:47;102326.72;;;5.40;100.00
16690;BME280;8458;52.220;9.884;2023-02-11T01:33:15;102328.81;;;5.38;100.00
16690;BME280;8458;52.220;9.884;2023-02-11T01:35:42;102323.31;;;5.38;100.00
16690;BME280;8458;52.220;9.884;2023-02-11T01:38:13;102314.38;;;5.36;100.00
16690;BME280;8458;52.220;9.884;2023-02-11T01:40:46;102307.66;;;5.38;100.00
16690;BME280;8458;52.220;9.884;2023-02-11T01:43:12;102301.94;;;5.40;100.00
16690;BME280;8458;52.220;9.884;2023-02-11T01:45:54;102299.19;;;5.40;100.00
16690;BME280;8458;52.220;9.884;2023-02-11T01:48:26;102297.88;;;5.36;100.00
16690;BME280;8458;52.220;9.884;2023-02-11T01:50:59;102303.56;;;5.34;100.00
16690;BME280;8458;52.220;9.884;2023-02-11T01:53:26;102287.91;;;5.35;100.00
16690;BME280;8458;52.220;9.884;2023-02-11T01:56:12;102289.34;;;5.31;100.00
16690;BME280;8458;52.220;9.884;2023-02-11T01:59:02;102272.25;;;5.35;100.00
16690;BME280;8458;52.220;9.884;2023-02-11T02:01:31;102275.09;;;5.42;100.00
16690;BME280;8458;52.220;9.884;2023-02-11T02:04:02;102263.63;;;5.38;100.00
16690;BME280;8458;52.220;9.884;2023-02-11T02:06:34;102255.19;;;5.40;100.00
16690;BME280;8458;52.220;9.884;2023-02-11T02:09:04;102234.69;;;5.43;100.00
16690;BME280;8458;52.220;9.884;2023-02-11T02:11:33;102245.41;;;5.37;100.00
16690;BME280;8458;52.220;9.884;2023-02-11T02:14:00;102240.78;;;5.38;100.00
16690;BME280;8458;52.220;9.884;2023-02-11T02:16:29;102249.28;;;5.43;100.00
16690;BME280;8458;52.220;9.884;2023-02-11T02:19:13;102238.28;;;5.43;100.00
16690;BME280;8458;52.220;9.884;2023-02-11T02:22:01;102234.22;;;5.39;100.00
16690;BME280;8458;52.220;9.884;2023-02-11T02:24:47;102224.16;;;5.31;100.00
16690;BME280;8458;52.220;9.884;2023-02-11T02:27:29;102229.47;;;5.33;100.00
16690;BME280;8458;52.220;9.884;2023-02-11T02:30:31;102231.38;;;5.32;100.00
16690;BME280;8458;52.220;9.884;2023-02-11T02:36:07;102232.59;;;5.30;100.00
16690;BME280;8458;52.220;9.884;2023-02-11T02:38:38;102232.22;;;5.33;100.00
16690;BME280;8458;52.220;9.884;2023-02-11T02:41:11;102238.59;;;5.33;100.00
16690;BME280;8458;52.220;9.884;2023-02-11T02:43:46;102247.44;;;5.29;100.00
16690;BME280;8458;52.220;9.884;2023-02-11T02:46:16;102246.66;;;5.35;100.00
16690;BME280;8458;52.220;9.884;2023-02-11T02:48:45;102244.56;;;5.37;100.00
16690;BME280;8458;52.220;9.884;2023-02-11T02:51:38;102239.44;;;5.34;100.00
16690;BME280;8458;52.220;9.884;2023-02-11T02:54:28;102235.66;;;5.35;100.00
16690;BME280;8458;52.220;9.884;2023-02-11T02:57:00;102220.19;;;5.34;100.00
16690;BME280;8458;52.220;9.884;2023-02-11T02:59:44;102222.94;;;5.34;100.00
16690;BME280;8458;52.220;9.884;2023-02-11T03:02:21;102219.16;;;5.35;100.00
16690;BME280;8458;52.220;9.884;2023-02-11T03:04:56;102212.88;;;5.41;100.00
16690;BME280;8458;52.220;9.884;2023-02-11T03:07:36;102212.19;;;5.39;100.00
16690;BME280;8458;52.220;9.884;2023-02-11T03:10:08;102208.88;;;5.44;100.00
16690;BME280;8458;52.220;9.884;2023-02-11T03:12:36;102216.66;;;5.40;100.00
16690;BME280;8458;52.220;9.884;2023-02-11T03:15:04;102208.66;;;5.45;100.00
16690;BME280;8458;52.220;9.884;2023-02-11T03:17:32;102206.97;;;5.44;100.00
16690;BME280;8458;52.220;9.884;2023-02-11T03:20:04;102199.75;;;5.43;100.00
16690;BME280;8458;52.220;9.884;2023-02-11T03:22:35;102185.16;;;5.43;100.00
16690;BME280;8458;52.220;9.884;2023-02-11T03:25:04;102179.19;;;5.39;100.00
16690;BME280;8458;52.220;9.884;2023-02-11T03:27:35;102164.19;;;5.42;100.00
16690;BME280;8458;52.220;9.884;2023-02-11T03:30:10;102175.19;;;5.42;100.00
16690;BME280;8458;52.220;9.884;2023-02-11T03:32:41;102173.47;;;5.41;100.00
16690;BME280;8458;52.220;9.884;2023-02-11T03:35:15;102183.25;;;5.43;100.00
16690;BME280;8458;52.220;9.884;2023-02-11T03:37:50;102180.91;;;5.40;100.00
16690;BME280;8458;52.220;9.884;2023-02-11T03:40:20;102173.69;;;5.39;100.00
16690;BME280;8458;52.220;9.884;2023-02-11T03:42:51;102169.81;;;5.33;100.00
16690;BME280;8458;52.220;9.884;2023-02-11T03:45:21;102162.66;;;5.39;100.00
16690;BME280;8458;52.220;9.884;2023-02-11T03:47:52;102164.19;;;5.42;100.00
16690;BME280;8458;52.220;9.884;2023-02-11T03:50:22;102163.34;;;5.41;100.00
16690;BME280;8458;52.220;9.884;2023-02-11T03:52:49;102187.44;;;5.39;100.00
16690;BME280;8458;52.220;9.884;2023-02-11T03:55:18;102174.75;;;5.38;100.00
16690;BME280;8458;52.220;9.884;2023-02-11T03:57:46;102186.41;;;5.40;100.00
16690;BME280;8458;52.220;9.884;2023-02-11T04:00:13;102190.88;;;5.41;100.00
16690;BME280;8458;52.220;9.884;2023-02-11T04:02:41;102185.75;;;5.38;100.00
16690;BME280;8458;52.220;9.884;2023-02-11T04:05:13;102177.41;;;5.31;100.00
16690;BME280;8458;52.220;9.884;2023-02-11T04:07:42;102184.03;;;5.37;100.00
16690;BME280;8458;52.220;9.884;2023-02-11T04:10:10;102180.63;;;5.35;100.00
16690;BME280;8458;52.220;9.884;2023-02-11T04:12:37;102180.63;;;5.35;100.00
16690;BME280;8458;52.220;9.884;2023-02-11T04:15:04;102194.66;;;5.40;100.00
16690;BME280;8458;52.220;9.884;2023-02-11T04:17:30;102196.38;;;5.41;100.00
16690;BME280;8458;52.220;9.884;2023-02-11T04:19:57;102193.13;;;5.37;100.00
16690;BME280;8458;52.220;9.884;2023-02-11T04:22:24;102197.66;;;5.45;100.00
16690;BME280;8458;52.220;9.884;2023-02-11T04:24:51;102200.81;;;5.42;100.00
16690;BME280;8458;52.220;9.884;2023-02-11T04:27:18;102190.66;;;5.43;100.00
16690;BME280;8458;52.220;9.884;2023-02-11T04:29:44;102196.38;;;5.41;100.00
16690;BME280;8458;52.220;9.884;2023-02-11T04:32:11;102184.09;;;5.44;100.00
16690;BME280;8458;52.220;9.884;2023-02-11T04:34:37;102188.75;;;5.43;100.00
16690;BME280;8458;52.220;9.884;2023-02-11T04:37:04;102191.25;;;5.38;100.00
16690;BME280;8458;52.220;9.884;2023-02-11T04:39:30;102186.59;;;5.38;100.00
16690;BME280;8458;52.220;9.884;2023-02-11T04:41:59;102194.38;;;5.35;100.00
16690;BME280;8458;52.220;9.884;2023-02-11T04:44:25;102189.09;;;5.33;100.00
16690;BME280;8458;52.220;9.884;2023-02-11T04:46:52;102189.66;;;5.29;100.00
16690;BME280;8458;52.220;9.884;2023-02-11T04:49:18;102192.03;;;5.32;100.00
16690;BME280;8458;52.220;9.884;2023-02-11T04:51:45;102190.31;;;5.31;100.00
16690;BME280;8458;52.220;9.884;2023-02-11T04:54:12;102187.16;;;5.34;100.00
16690;BME280;8458;52.220;9.884;2023-02-11T04:56:38;102186.13;;;5.35;100.00
16690;BME280;8458;52.220;9.884;2023-02-11T04:59:06;102189.91;;;5.34;100.00
16690;BME280;8458;52.220;9.884;2023-02-11T05:01:33;102182.69;;;5.33;100.00
16690;BME280;8458;52.220;9.884;2023-02-11T05:04:00;102194.50;;;5.27;100.00
16690;BME280;8458;52.220;9.884;2023-02-11T05:06:26;102182.31;;;5.36;100.00
16690;BME280;8458;52.220;9.884;2023-02-11T05:08:53;102179.75;;;5.34;100.00
16690;BME280;8458;52.220;9.884;2023-02-11T05:11:20;102178.91;;;5.34;100.00
16690;BME280;8458;52.220;9.884;2023-02-11T05:13:47;102179.97;;;5.33;100.00
16690;BME280;8458;52.220;9.884;2023-02-11T05:16:16;102178.53;;;5.37;100.00
16690;BME280;8458;52.220;9.884;2023-02-11T05:18:43;102173.03;;;5.37;100.00
16690;BME280;8458;52.220;9.884;2023-02-11T05:21:12;102172.56;;;5.33;100.00
16690;BME280;8458;52.220;9.884;2023-02-11T05:23:39;102180.63;;;5.35;100.00
16690;BME280;8458;52.220;9.884;2023-02-11T05:26:07;102184.88;;;5.37;100.00
16690;BME280;8458;52.220;9.884;2023-02-11T05:28:34;102180.25;;;5.38;100.00
16690;BME280;8458;52.220;9.884;2023-02-11T05:31:00;102174.75;;;5.38;100.00
16690;BME280;8458;52.220;9.884;2023-02-11T05:33:28;102185.38;;;5.41;100.00
16690;BME280;8458;52.220;9.884;2023-02-11T05:35:57;102198.25;;;5.41;100.00
16690;BME280;8458;52.220;9.884;2023-02-11T05:38:24;102199.75;;;5.43;100.00
16690;BME280;8458;52.220;9.884;2023-02-11T05:40:50;102208.59;;;5.38;100.00
16690;BME280;8458;52.220;9.884;2023-02-11T05:43:17;102194.66;;;5.40;100.00
16690;BME280;8458;52.220;9.884;2023-02-11T05:45:43;102180.31;;;5.45;100.00
16690;BME280;8458;52.220;9.884;2023-02-11T05:48:10;102183.53;;;5.48;100.00
16690;BME280;8458;52.220;9.884;2023-02-11T05:50:38;102183.13;;;5.51;100.00
16690;BME280;8458;52.220;9.884;2023-02-11T05:53:04;102186.75;;;5.52;100.00
16690;BME280;8458;52.220;9.884;2023-02-11T05:55:31;102187.78;;;5.51;100.00
16690;BME280;8458;52.220;9.884;2023-02-11T05:57:57;102190.09;;;5.47;100.00
16690;BME280;8458;52.220;9.884;2023-02-11T06:00:24;102192.25;;;5.52;100.00
16690;BME280;8458;52.220;9.884;2023-02-11T06:02:51;102194.63;;;5.55;100.00
16690;BME280;8458;52.220;9.884;2023-02-11T06:05:18;102188.94;;;5.56;100.00
16690;BME280;8458;52.220;9.884;2023-02-11T06:07:45;102192.97;;;5.61;100.00
16690;BME280;8458;52.220;9.884;2023-02-11T06:10:12;102189.75;;;5.57;100.00
16690;BME280;8458;52.220;9.884;2023-02-11T06:12:38;102175.81;;;5.59;100.00
16690;BME280;8458;52.220;9.884;2023-02-11T06:15:06;102173.31;;;5.64;100.00
16690;BME280;8458;52.220;9.884;2023-02-11T06:17:33;102184.31;;;5.64;100.00
16690;BME280;8458;52.220;9.884;2023-02-11T06:20:01;102180.91;;;5.62;100.00
16690;BME280;8458;52.220;9.884;2023-02-11T06:22:28;102177.91;;;5.56;100.00
16690;BME280;8458;52.220;9.884;2023-02-11T06:24:56;102177.13;;;5.63;100.00
16690;BME280;8458;52.220;9.884;2023-02-11T06:27:22;102175.03;;;5.65;100.00
16690;BME280;8458;52.220;9.884;2023-02-11T06:29:49;102177.97;;;5.63;100.00
16690;BME280;8458;52.220;9.884;2023-02-11T06:32:16;102181.56;;;5.64;100.00
16690;BME280;8458;52.220;9.884;2023-02-11T06:34:44;102185.66;;;5.68;100.00
16690;BME280;8458;52.220;9.884;2023-02-11T06:37:10;102188.84;;;5.71;100.00
16690;BME280;8458;52.220;9.884;2023-02-11T06:39:37;102183.53;;;5.70;100.00
16690;BME280;8458;52.220;9.884;2023-02-11T06:42:05;102178.50;;;5.73;100.00
16690;BME280;8458;52.220;9.884;2023-02-11T06:44:31;102189.03;;;5.70;100.00
16690;BME280;8458;52.220;9.884;2023-02-11T06:46:58;102196.31;;;5.78;100.00
16690;BME280;8458;52.220;9.884;2023-02-11T06:49:24;102180.00;;;5.76;100.00
16690;BME280;8458;52.220;9.884;2023-02-11T06:51:51;102186.19;;;5.78;100.00
16690;BME280;8458;52.220;9.884;2023-02-11T06:54:17;102195.09;;;5.80;100.00
16690;BME280;8458;52.220;9.884;2023-02-11T06:56:44;102194.63;;;5.77;100.00
16690;BME280;8458;52.220;9.884;2023-02-11T06:59:14;102188.94;;;5.78;100.00
16690;BME280;8458;52.220;9.884;2023-02-11T07:01:40;102198.88;;;5.79;100.00
16690;BME280;8458;52.220;9.884;2023-02-11T07:04:07;102201.63;;;5.79;100.00
16690;BME280;8458;52.220;9.884;2023-02-11T07:06:34;102195.09;;;5.80;100.00
16690;BME280;8458;52.220;9.884;2023-02-11T07:09:02;102187.97;;;5.86;100.00
16690;BME280;8458;52.220;9.884;2023-02-11T07:11:29;102184.31;;;5.85;100.00
16690;BME280;8458;52.220;9.884;2023-02-11T07:13:59;102188.81;;;5.86;100.00
16690;BME280;8458;52.220;9.884;2023-02-11T07:16:27;102196.22;;;5.86;100.00
16690;BME280;8458;52.220;9.884;2023-02-11T07:18:54;102191.56;;;5.86;100.00
16690;BME280;8458;52.220;9.884;2023-02-11T07:21:21;102200.44;;;5.88;100.00
16690;BME280;8458;52.220;9.884;2023-02-11T07:23:49;102198.56;;;5.89;100.00
16690;BME280;8458;52.220;9.884;2023-02-11T07:26:17;102201.13;;;5.90;100.00
16690;BME280;8458;52.220;9.884;2023-02-11T07:28:44;102212.16;;;5.90;100.00
16690;BME280;8458;52.220;9.884;2023-02-11T07:31:12;102216.00;;;5.96;100.00
16690;BME280;8458;52.220;9.884;2023-02-11T07:33:40;102212.69;;;6.01;100.00
16690;BME280;8458;52.220;9.884;2023-02-11T07:36:09;102208.88;;;6.02;100.00
16690;BME280;8458;52.220;9.884;2023-02-11T07:38:36;102214.41;;;6.02;100.00
16690;BME280;8458;52.220;9.884;2023-02-11T07:41:05;102208.25;;;6.00;100.00
16690;BME280;8458;52.220;9.884;2023-02-11T07:43:33;102212.28;;;6.04;100.00
16690;BME280;8458;52.220;9.884;2023-02-11T07:46:02;102214.41;;;6.02;100.00
16690;BME280;8458;52.220;9.884;2023-02-11T07:48:28;102200.19;;;5.98;100.00
16690;BME280;8458;52.220;9.884;2023-02-11T07:51:04;102207.19;;;6.01;100.00
16690;BME280;8458;52.220;9.884;2023-02-11T07:53:30;102211.44;;;6.03;100.00
16690;BME280;8458;52.220;9.884;2023-02-11T07:55:57;102222.47;;;6.03;100.00
16690;BME280;8458;52.220;9.884;2023-02-11T07:58:23;102216.13;;;6.03;100.00
16690;BME280;8458;52.220;9.884;2023-02-11T08:00:50;102219.13;;;6.08;100.00
16690;BME280;8458;52.220;9.884;2023-02-11T08:03:16;102213.81;;;6.06;100.00
16690;BME280;8458;52.220;9.884;2023-02-11T08:05:43;102214.94;;;6.12;100.00
16690;BME280;8458;52.220;9.884;2023-02-11T08:08:10;102216.16;;;6.09;100.00
16690;BME280;8458;52.220;9.884;2023-02-11T08:10:37;102217.22;;;6.08;100.00
16690;BME280;8458;52.220;9.884;2023-02-11T08:13:03;102214.66;;;6.07;100.00
16690;BME280;8458;52.220;9.884;2023-02-11T08:15:30;102203.91;;;6.12;100.00
16690;BME280;8458;52.220;9.884;2023-02-11T08:17:56;102208.09;;;6.08;100.00
16690;BME280;8458;52.220;9.884;2023-02-11T08:20:22;102206.66;;;6.12;100.00
16690;BME280;8458;52.220;9.884;2023-02-11T08:22:49;102213.66;;;6.15;100.00
16690;BME280;8458;52.220;9.884;2023-02-11T08:25:17;102206.47;;;6.14;100.00
16690;BME280;8458;52.220;9.884;2023-02-11T08:27:43;102214.53;;;6.15;100.00
16690;BME280;8458;52.220;9.884;2023-02-11T08:30:11;102213.66;;;6.15;100.00
16690;BME280;8458;52.220;9.884;2023-02-11T08:32:37;102206.47;;;6.14;100.00
16690;BME280;8458;52.220;9.884;2023-02-11T08:35:05;102214.13;;;6.18;100.00
16690;BME280;8458;52.220;9.884;2023-02-11T08:37:32;102223.84;;;6.14;100.00
16690;BME280;8458;52.220;9.884;2023-02-11T08:39:58;102238.25;;;6.16;100.00
16690;BME280;8458;52.220;9.884;2023-02-11T08:42:26;102232.75;;;6.16;100.00
16690;BME280;8458;52.220;9.884;2023-02-11T08:44:53;102241.28;;;6.21;100.00
16690;BME280;8458;52.220;9.884;2023-02-11T08:47:19;102247.63;;;6.22;100.00
16690;BME280;8458;52.220;9.884;2023-02-11T08:49:46;102245.53;;;6.24;100.00
16690;BME280;8458;52.220;9.884;2023-02-11T08:52:12;102240.63;;;6.19;100.00
16690;BME280;8458;52.220;9.884;2023-02-11T08:54:38;102251.50;;;6.27;100.00
16690;BME280;8458;52.220;9.884;2023-02-11T08:57:06;102247.25;;;6.25;100.00
16690;BME280;8458;52.220;9.884;2023-02-11T08:59:34;102254.47;;;6.26;100.00
16690;BME280;8458;52.220;9.884;2023-02-11T09:02:00;102246.81;;;6.21;100.00
16690;BME280;8458;52.220;9.884;2023-02-11T09:04:26;102246.41;;;6.24;100.00
16690;BME280;8458;52.220;9.884;2023-02-11T09:06:53;102247.69;;;6.28;100.00
16690;BME280;8458;52.220;9.884;2023-02-11T09:09:19;102248.75;;;6.27;100.00
16690;BME280;8458;52.220;9.884;2023-02-11T09:11:46;102244.69;;;6.23;100.00
16690;BME280;8458;52.220;9.884;2023-02-11T09:14:18;102258.72;;;6.28;100.00
16690;BME280;8458;52.220;9.884;2023-02-11T09:16:46;102256.63;;;6.31;100.00
16690;BME280;8458;52.220;9.884;2023-02-11T09:19:13;102261.75;;;6.34;100.00
16690;BME280;8458;52.220;9.884;2023-02-11T09:21:40;102262.16;;;6.31;100.00
16690;BME280;8458;52.220;9.884;2023-02-11T09:24:06;102264.31;;;6.35;100.00
16690;BME280;8458;52.220;9.884;2023-02-11T09:26:34;102264.34;;;6.42;100.00
16690;BME280;8458;52.220;9.884;2023-02-11T09:29:02;102268.16;;;6.41;100.00
16690;BME280;8458;52.220;9.884;2023-02-11T09:31:30;102272.03;;;6.46;100.00
16690;BME280;8458;52.220;9.884;2023-02-11T09:34:00;102268.22;;;6.48;100.00
16690;BME280;8458;52.220;9.884;2023-02-11T09:36:29;102277.78;;;6.52;100.00
16690;BME280;8458;52.220;9.884;2023-02-11T09:38:57;102282.06;;;6.54;100.00
16690;BME280;8458;52.220;9.884;2023-02-11T09:41:33;102267.88;;;6.57;100.00
16690;BME280;8458;52.220;9.884;2023-02-11T09:44:03;102274.81;;;6.53;100.00
16690;BME280;8458;52.220;9.884;2023-02-11T09:46:32;102273.78;;;6.54;100.00
16690;BME280;8458;52.220;9.884;2023-02-11T09:49:02;102294.13;;;6.53;100.00
16690;BME280;8458;52.220;9.884;2023-02-11T09:51:35;102291.63;;;6.58;100.00
16690;BME280;8458;52.220;9.884;2023-02-11T09:54:11;102309.47;;;6.62;100.00
16690;BME280;8458;52.220;9.884;2023-02-11T09:56:38;102305.47;;;6.65;100.00
16690;BME280;8458;52.220;9.884;2023-02-11T09:59:09;102311.56;;;6.60;100.00
16690;BME280;8458;52.220;9.884;2023-02-11T10:01:39;102323.88;;;6.64;100.00
16690;BME280;8458;52.220;9.884;2023-02-11T10:04:13;102327.97;;;6.69;100.00
16690;BME280;8458;52.220;9.884;2023-02-11T10:06:46;102315.91;;;6.70;100.00
16690;BME280;8458;52.220;9.884;2023-02-11T10:09:23;102325.22;;;6.69;100.00
16690;BME280;8458;52.220;9.884;2023-02-11T10:12:02;102322.91;;;6.72;100.00
16690;BME280;8458;52.220;9.884;2023-02-11T10:14:53;102329.94;;;6.75;100.00
16690;BME280;8458;52.220;9.884;2023-02-11T10:17:36;102340.13;;;6.74;100.00
16690;BME280;8458;52.220;9.884;2023-02-11T10:20:17;102339.44;;;6.72;100.00
16690;BME280;8458;52.220;9.884;2023-02-11T10:22:47;102336.88;;;6.71;100.00
16690;BME280;8458;52.220;9.884;2023-02-11T10:25:21;102336.28;;;6.75;100.00
16690;BME280;8458;52.220;9.884;2023-02-11T10:27:49;102332.03;;;6.73;100.00
16690;BME280;8458;52.220;9.884;2023-02-11T10:30:22;102335.44;;;6.75;100.00
16690;BME280;8458;52.220;9.884;2023-02-11T10:32:54;102324.41;;;6.75;100.00
16690;BME280;8458;52.220;9.884;2023-02-11T10:35:24;102321.47;;;6.76;100.00
16690;BME280;8458;52.220;9.884;2023-02-11T10:37:52;102324.00;;;6.78;100.00
16690;BME280;8458;52.220;9.884;2023-02-11T10:40:21;102314.31;;;6.82;100.00
16690;BME280;8458;52.220;9.884;2023-02-11T10:42:54;102317.06;;;6.82;100.00
16690;BME280;8458;52.220;9.884;2023-02-11T10:45:24;102307.91;;;6.81;100.00
16690;BME280;8458;52.220;9.884;2023-02-11T10:47:52;102316.19;;;6.81;100.00
16690;BME280;8458;52.220;9.884;2023-02-11T10:50:24;102328.09;;;6.82;100.00
16690;BME280;8458;52.220;9.884;2023-02-11T10:52:51;102330.03;;;6.88;100.00
16690;BME280;8458;52.220;9.884;2023-02-11T10:55:20;102332.13;;;6.86;100.00
16690;BME280;8458;52.220;9.884;2023-02-11T10:57:54;102327.69;;;6.85;100.00
16690;BME280;8458;52.220;9.884;2023-02-11T11:00:34;102331.72;;;6.89;100.00
16690;BME280;8458;52.220;9.884;2023-02-11T11:03:04;102328.38;;;6.94;100.00
16690;BME280;8458;52.220;9.884;2023-02-11T11:05:36;102322.22;;;6.92;100.00
16690;BME280;8458;52.220;9.884;2023-02-11T11:08:05;102319.84;;;6.89;100.00
16690;BME280;8458;52.220;9.884;2023-02-11T11:10:38;102321.19;;;6.93;100.00
16690;BME280;8458;52.220;9.884;2023-02-11T11:13:26;102324.13;;;6.91;100.00
16690;BME280;8458;52.220;9.884;2023-02-11T11:16:18;102329.66;;;6.91;100.00
16690;BME280;8458;52.220;9.884;2023-02-11T11:18:46;102329.66;;;6.91;100.00
16690;BME280;8458;52.220;9.884;2023-02-11T11:21:18;102327.13;;;6.96;100.00
16690;BME280;8458;52.220;9.884;2023-02-11T11:23:51;102325.41;;;6.95;100.00
16690;BME280;8458;52.220;9.884;2023-02-11T11:26:19;102330.31;;;7.00;100.00
16690;BME280;8458;52.220;9.884;2023-02-11T11:28:53;102322.00;;;6.93;100.00
16690;BME280;8458;52.220;9.884;2023-02-11T11:31:23;102327.97;;;6.97;100.00
16690;BME280;8458;52.220;9.884;2023-02-11T11:33:51;102331.59;;;6.97;100.00
16690;BME280;8458;52.220;9.884;2023-02-11T11:36:23;102323.13;;;6.99;100.00
16690;BME280;8458;52.220;9.884;2023-02-11T11:38:57;102326.72;;;6.99;100.00
16690;BME280;8458;52.220;9.884;2023-02-11T11:41:26;102336.03;;;6.98;100.00
16690;BME280;8458;52.220;9.884;2023-02-11T11:44:00;102345.78;;;6.94;100.00
16690;BME280;8458;52.220;9.884;2023-02-11T11:46:30;102336.00;;;6.92;100.00
16690;BME280;8458;52.220;9.884;2023-02-11T11:49:04;102331.34;;;6.92;100.00
16690;BME280;8458;52.220;9.884;2023-02-11T11:51:35;102336.59;;;6.87;100.00
16690;BME280;8458;52.220;9.884;2023-02-11T11:54:07;102334.50;;;6.89;100.00
16690;BME280;8458;52.220;9.884;2023-02-11T11:56:39;102327.09;;;6.90;100.00
16690;BME280;8458;52.220;9.884;2023-02-11T11:59:10;102334.25;;;6.84;100.00
16690;BME280;8458;52.220;9.884;2023-02-11T12:01:49;102329.13;;;6.81;100.00
16690;BME280;8458;52.220;9.884;2023-02-11T12:04:42;102346.59;;;6.88;100.00
16690;BME280;8458;52.220;9.884;2023-02-11T12:07:27;102327.28;;;6.88;100.00
16690;BME280;8458;52.220;9.884;2023-02-11T12:10:16;102327.69;;;6.85;100.00
16690;BME280;8458;52.220;9.884;2023-02-11T12:12:53;102322.81;;;6.87;100.00
16690;BME280;8458;52.220;9.884;2023-02-11T12:15:30;102323.25;;;6.91;100.00
16690;BME280;8458;52.220;9.884;2023-02-11T12:18:11;102331.34;;;6.92;100.00
16690;BME280;8458;52.220;9.884;2023-02-11T12:20:50;102326.72;;;6.99;100.00
16690;BME280;8458;52.220;9.884;2023-02-11T12:23:33;102320.38;;;6.99;100.00
16690;BME280;8458;52.220;9.884;2023-02-11T12:26:10;102335.00;;;6.99;100.00
16690;BME280;8458;52.220;9.884;2023-02-11T12:28:48;102338.16;;;6.96;100.00
16690;BME280;8458;52.220;9.884;2023-02-11T12:31:26;102335.84;;;7.00;100.00
16690;BME280;8458;52.220;9.884;2023-02-11T12:34:03;102339.47;;;7.00;100.00
16690;BME280;8458;52.220;9.884;2023-02-11T12:36:52;102341.63;;;7.05;100.00
16690;BME280;8458;52.220;9.884;2023-02-11T12:39:32;102335.66;;;7.02;100.00
16690;BME280;8458;52.220;9.884;2023-02-11T12:42:13;102342.84;;;6.96;100.00
16690;BME280;8458;52.220;9.884;2023-02-11T12:45:14;102350.72;;;6.99;100.00
16690;BME280;8458;52.220;9.884;2023-02-11T12:47:53;102344.09;;;6.93;100.00
16690;BME280;8458;52.220;9.884;2023-02-11T12:50:29;102330.94;;;6.95;100.00
16690;BME280;8458;52.220;9.884;2023-02-11T12:53:07;102325.00;;;6.98;100.00
16690;BME280;8458;52.220;9.884;2023-02-11T12:55:43;102327.38;;;7.02;100.00
16690;BME280;8458;52.220;9.884;2023-02-11T12:58:15;102326.31;;;7.03;100.00
16690;BME280;8458;52.220;9.884;2023-02-11T13:00:46;102340.28;;;6.94;100.00
16690;BME280;8458;52.220;9.884;2023-02-11T13:03:18;102339.22;;;6.95;100.00
16690;BME280;8458;52.220;9.884;2023-02-11T13:05:48;102334.09;;;6.92;100.00
16690;BME280;8458;52.220;9.884;2023-02-11T13:08:21;102333.03;;;6.93;100.00
16690;BME280;8458;52.220;9.884;2023-02-11T13:10:54;102334.34;;;6.97;100.00
16690;BME280;8458;52.220;9.884;2023-02-11T13:13:24;102339.47;;;7.00;100.00
16690;BME280;8458;52.220;9.884;2023-02-11T13:15:54;102336.03;;;6.98;100.00
16690;BME280;8458;52.220;9.884;2023-02-11T13:18:28;102335.66;;;7.02;100.00
16690;BME280;8458;52.220;9.884;2023-02-11T13:21:07;102349.19;;;6.96;100.00